createdAt,value
2018-04-14T00:01:59.112Z,98162.98
2018-04-14T00:04:27.363Z,98164.63
2018-04-14T00:06:55.617Z,98161.70
2018-04-14T00:09:23.880Z,98163.09
2018-04-14T00:11:52.905Z,98157.09
2018-04-14T00:14:21.157Z,98157.08
2018-04-14T00:16:50.189Z,98158.30
2018-04-14T00:19:18.446Z,98164.94
2018-04-14T00:21:46.702Z,98169.83
2018-04-14T00:24:15.722Z,98174.03
2018-04-14T00:26:43.981Z,98174.48
2018-04-14T00:29:12.235Z,98174.41
2018-04-14T00:31:40.484Z,98171.86
2018-04-14T00:34:08.745Z,98166.76
2018-04-14T00:36:37.009Z,98165.18
2018-04-14T00:39:06.023Z,98170.55
2018-04-14T00:41:34.286Z,98176.80
2018-04-14T00:44:02.546Z,98170.59
2018-04-14T00:46:30.814Z,98168.78
2018-04-14T00:48:59.069Z,98178.82
2018-04-14T00:51:28.088Z,98178.31
2018-04-14T00:53:56.354Z,98187.70
2018-04-14T00:56:24.610Z,98182.06
2018-04-14T00:58:53.627Z,98187.20
2018-04-14T01:01:21.885Z,98187.14
2018-04-14T01:03:50.149Z,98188.82
2018-04-14T01:06:19.180Z,98184.40
2018-04-14T01:08:47.438Z,98186.53
2018-04-14T01:11:15.689Z,98183.16
2018-04-14T01:13:44.717Z,98185.16
2018-04-14T01:16:12.977Z,98182.48
2018-04-14T01:18:41.234Z,98194.23
2018-04-14T01:21:10.249Z,98194.23
2018-04-14T01:23:38.579Z,98195.81
2018-04-14T01:26:06.832Z,98186.93
2018-04-14T01:28:35.089Z,98194.20
2018-04-14T01:31:03.348Z,98191.22
2018-04-14T01:33:32.380Z,98196.47
2018-04-14T01:36:00.639Z,98190.86
2018-04-14T01:38:28.892Z,98198.63
2018-04-14T01:40:57.921Z,98192.72
2018-04-14T01:43:26.178Z,98201.99
2018-04-14T01:45:54.444Z,98196.05
2018-04-14T01:48:22.703Z,98200.50
2018-04-14T01:50:51.726Z,98198.91
2018-04-14T01:53:19.990Z,98200.11
2018-04-14T01:55:48.244Z,98199.15
2018-04-14T01:58:17.270Z,98202.02
2018-04-14T02:00:45.523Z,98212.47
2018-04-14T02:03:14.552Z,98208.13
2018-04-14T02:05:42.806Z,98208.02
2018-04-14T02:08:11.050Z,98205.40
2018-04-14T02:10:40.078Z,98212.73
2018-04-14T02:13:08.326Z,98208.41
2018-04-14T02:15:37.360Z,98205.86
2018-04-14T02:18:05.617Z,98209.30
2018-04-14T02:20:33.891Z,98210.59
2018-04-14T02:23:02.143Z,98208.75
2018-04-14T02:25:31.187Z,98215.51
2018-04-14T02:27:59.434Z,98218.59
2018-04-14T02:30:27.698Z,98223.56
2018-04-14T02:32:56.728Z,98223.88
2018-04-14T02:35:24.974Z,98223.45
2018-04-14T02:37:53.241Z,98224.48
2018-04-14T02:40:22.264Z,98218.51
2018-04-14T02:42:50.524Z,98228.43
2018-04-14T02:45:18.780Z,98229.48
2018-04-14T02:47:47.812Z,98232.45
2018-04-14T02:50:16.071Z,98238.34
2018-04-14T02:52:44.343Z,98236.27
2018-04-14T02:55:12.603Z,98243.30
2018-04-14T02:57:41.628Z,98239.25
2018-04-14T03:00:09.885Z,98241.66
2018-04-14T03:02:38.153Z,98234.97
2018-04-14T03:05:07.179Z,98239.84
2018-04-14T03:07:35.433Z,98238.06
2018-04-14T03:10:03.687Z,98240.09
2018-04-14T03:12:32.712Z,98238.42
2018-04-14T03:15:00.964Z,98235.38
2018-04-14T03:17:30.007Z,98230.95
2018-04-14T03:19:58.263Z,98230.41
2018-04-14T03:22:26.507Z,98235.36
2018-04-14T03:24:55.543Z,98235.29
2018-04-14T03:27:23.834Z,98239.66
2018-04-14T03:29:52.124Z,98240.98
2018-04-14T03:32:20.428Z,98240.78
2018-04-14T03:34:49.492Z,98242.23
2018-04-14T03:37:17.768Z,98245.37
2018-04-14T03:39:46.057Z,98238.19
2018-04-14T03:42:14.322Z,98246.94
2018-04-14T03:44:42.604Z,98245.33
2018-04-14T03:47:10.884Z,98241.48
2018-04-14T03:49:39.173Z,98245.25
2018-04-14T03:52:08.225Z,98248.30
2018-04-14T03:54:36.520Z,98249.45
2018-04-14T03:57:04.803Z,98249.50
2018-04-14T03:59:33.112Z,98257.05
2018-04-14T04:02:01.406Z,98251.92
2018-04-14T04:04:29.690Z,98246.56
2018-04-14T04:06:57.964Z,98247.83
2018-04-14T04:09:26.240Z,98247.86
2018-04-14T04:11:54.522Z,98246.63
2018-04-14T04:14:22.806Z,98251.29
2018-04-14T04:16:51.124Z,98264.00
2018-04-14T04:19:37.721Z,98261.93
2018-04-14T04:22:24.447Z,98260.09
2018-04-14T04:25:11.304Z,98267.97
2018-04-14T04:27:39.609Z,98275.68
2018-04-14T04:30:08.723Z,98276.91
2018-04-14T04:32:37.792Z,98281.56
2018-04-14T04:35:06.075Z,98282.56
2018-04-14T04:37:34.389Z,98289.42
2018-04-14T04:40:02.673Z,98292.05
2018-04-14T04:42:30.980Z,98290.76
2018-04-14T04:44:59.264Z,98300.49
2018-04-14T04:47:27.575Z,98305.73
2018-04-14T04:49:56.626Z,98304.70
2018-04-14T04:52:24.916Z,98308.02
2018-04-14T04:54:53.193Z,98308.83
2018-04-14T04:57:21.494Z,98315.44
2018-04-14T04:59:49.772Z,98327.13
2018-04-14T05:02:18.853Z,98329.11
2018-04-14T05:04:47.144Z,98332.39
2018-04-14T05:07:16.192Z,98334.99
2018-04-14T05:09:44.467Z,98334.72
2018-04-14T05:12:12.754Z,98344.31
2018-04-14T05:14:41.024Z,98351.80
2018-04-14T05:17:09.299Z,98344.42
2018-04-14T05:19:37.583Z,98344.66
2018-04-14T05:22:05.858Z,98351.45
2018-04-14T05:24:34.145Z,98354.72
2018-04-14T05:27:02.415Z,98350.71
2018-04-14T05:29:30.705Z,98361.35
2018-04-14T05:31:58.976Z,98350.50
2018-04-14T05:34:27.275Z,98364.12
2018-04-14T05:36:56.325Z,98372.56
2018-04-14T05:39:24.615Z,98374.67
2018-04-14T05:41:52.885Z,98377.28
2018-04-14T05:44:21.156Z,98371.08
2018-04-14T05:46:49.487Z,98377.40
2018-04-14T05:49:18.545Z,98378.34
2018-04-14T05:51:46.833Z,98381.81
2018-04-14T05:54:15.136Z,98383.08
2018-04-14T05:56:43.421Z,98378.96
2018-04-14T05:59:11.701Z,98380.34
2018-04-14T06:01:39.972Z,98384.69
2018-04-14T06:04:08.272Z,98387.22
2018-04-14T06:06:36.560Z,98387.67
2018-04-14T06:09:05.659Z,98395.73
2018-04-14T06:11:33.962Z,98392.80
2018-04-14T06:14:02.284Z,98391.55
2018-04-14T06:16:30.588Z,98389.53
2018-04-14T06:18:58.880Z,98395.53
2018-04-14T06:21:27.160Z,98397.26
2018-04-14T06:23:55.436Z,98402.83
2018-04-14T06:26:23.711Z,98407.53
2018-04-14T06:28:52.003Z,98410.95
2018-04-14T06:31:21.076Z,98421.56
2018-04-14T06:33:49.404Z,98415.28
2018-04-14T06:36:17.637Z,98414.89
2018-04-14T06:38:45.916Z,98419.56
2018-04-14T06:41:14.191Z,98422.06
2018-04-14T06:43:42.472Z,98420.00
2018-04-14T06:46:11.552Z,98418.34
2018-04-14T06:48:39.843Z,98421.31
2018-04-14T06:51:08.149Z,98425.10
2018-04-14T06:53:36.439Z,98428.06
2018-04-14T06:56:04.739Z,98429.34
2018-04-14T06:58:33.022Z,98432.71
2018-04-14T07:01:01.326Z,98434.39
2018-04-14T07:03:29.624Z,98435.25
2018-04-14T07:05:58.675Z,98433.55
2018-04-14T07:08:26.974Z,98440.35
2018-04-14T07:10:55.277Z,98440.76
2018-04-14T07:13:23.623Z,98440.33
2018-04-14T07:15:51.927Z,98440.34
2018-04-14T07:18:20.989Z,98444.11
2018-04-14T07:20:49.304Z,98440.71
2018-04-14T07:23:18.360Z,98441.97
2018-04-14T07:25:46.652Z,98443.20
2018-04-14T07:28:15.730Z,98450.77
2018-04-14T07:30:44.035Z,98455.48
2018-04-14T07:33:12.346Z,98450.36
2018-04-14T07:35:40.638Z,98455.03
2018-04-14T07:38:08.928Z,98462.18
2018-04-14T07:40:37.216Z,98469.37
2018-04-14T07:43:05.500Z,98471.44
2018-04-14T07:45:33.797Z,98467.58
2018-04-14T07:48:02.082Z,98469.14
2018-04-14T07:50:30.397Z,98472.08
2018-04-14T07:52:58.689Z,98472.61
2018-04-14T07:55:27.012Z,98478.05
2018-04-14T07:57:55.308Z,98474.42
2018-04-14T08:00:23.631Z,98469.25
2018-04-14T08:02:52.696Z,98467.53
2018-04-14T08:05:20.991Z,98473.46
2018-04-14T08:07:49.274Z,98473.37
2018-04-14T08:10:17.611Z,98470.58
2018-04-14T08:12:45.891Z,98472.14
2018-04-14T08:15:14.165Z,98478.14
2018-04-14T08:17:42.466Z,98469.74
2018-04-14T08:20:10.767Z,98469.96
2018-04-14T08:22:39.812Z,98467.92
2018-04-14T08:25:08.107Z,98473.30
2018-04-14T08:27:36.386Z,98479.30
2018-04-14T08:30:04.659Z,98481.28
2018-04-14T08:32:32.910Z,98476.61
2018-04-14T08:35:01.171Z,98481.17
2018-04-14T08:37:29.492Z,98478.41
2018-04-14T08:39:58.455Z,98489.00
2018-04-14T08:42:26.726Z,98481.68
2018-04-14T08:44:55.007Z,98488.09
2018-04-14T08:47:23.290Z,98481.45
2018-04-14T08:49:51.519Z,98483.80
2018-04-14T08:52:20.542Z,98485.38
2018-04-14T08:54:48.815Z,98485.44
2018-04-14T08:57:17.083Z,98478.13
2018-04-14T08:59:45.345Z,98484.37
2018-04-14T09:02:13.637Z,98488.75
2018-04-14T09:04:41.937Z,98482.95
2018-04-14T09:07:10.203Z,98494.78
2018-04-14T09:09:38.459Z,98473.53
2018-04-14T09:12:06.735Z,98487.21
2018-04-14T09:14:34.983Z,98497.51
2018-04-14T09:17:03.243Z,98495.59
2018-04-14T09:19:31.502Z,98500.52
2018-04-14T09:21:59.756Z,98494.66
2018-04-14T09:24:28.024Z,98502.99
2018-04-14T09:26:56.296Z,98485.88
2018-04-14T09:29:24.585Z,98504.30
2018-04-14T09:31:52.843Z,98503.76
2018-04-14T09:34:21.115Z,98494.80
2018-04-14T09:36:49.385Z,98501.91
2018-04-14T09:39:18.416Z,98494.44
2018-04-14T09:41:46.673Z,98501.80
2018-04-14T09:44:14.933Z,98496.05
2018-04-14T09:46:43.970Z,98505.89
2018-04-14T09:49:12.230Z,98498.82
2018-04-14T09:51:40.482Z,98492.96
2018-04-14T09:54:08.765Z,98492.63
2018-04-14T09:56:37.054Z,98494.91
2018-04-14T09:59:05.350Z,98490.81
2018-04-14T10:01:33.614Z,98494.92
2018-04-14T10:04:01.872Z,98492.72
2018-04-14T10:06:30.137Z,98494.16
2018-04-14T10:08:58.391Z,98500.50
2018-04-14T10:11:27.429Z,98493.19
2018-04-14T10:13:55.680Z,98489.20
2018-04-14T10:16:23.945Z,98492.23
2018-04-14T10:18:52.201Z,98489.20
2018-04-14T10:21:20.467Z,98483.87
2018-04-14T10:23:48.745Z,98485.13
2018-04-14T10:26:17.017Z,98480.47
2018-04-14T10:28:45.268Z,98476.17
2018-04-14T10:31:13.561Z,98471.14
2018-04-14T10:33:41.819Z,98477.67
2018-04-14T10:36:10.080Z,98482.11
2018-04-14T10:38:38.330Z,98477.70
2018-04-14T10:41:07.374Z,98477.23
2018-04-14T10:43:35.645Z,98475.57
2018-04-14T10:46:03.927Z,98470.26
2018-04-14T10:48:32.192Z,98464.98
2018-04-14T10:51:00.448Z,98454.06
2018-04-14T10:53:28.718Z,98466.88
2018-04-14T10:55:56.988Z,98453.73
2018-04-14T10:58:25.252Z,98454.73
2018-04-14T11:00:54.286Z,98457.85
2018-04-14T11:03:22.554Z,98462.59
2018-04-14T11:05:50.814Z,98460.99
2018-04-14T11:08:19.083Z,98463.57
2018-04-14T11:10:47.350Z,98465.70
2018-04-14T11:13:16.391Z,98458.11
2018-04-14T11:15:44.641Z,98456.73
2018-04-14T11:18:12.900Z,98455.49
2018-04-14T11:20:41.924Z,98455.48
2018-04-14T11:23:10.185Z,98458.81
2018-04-14T11:25:38.459Z,98453.55
2018-04-14T11:28:06.715Z,98452.42
2018-04-14T11:30:34.983Z,98458.75
2018-04-14T11:33:04.006Z,98456.55
2018-04-14T11:35:32.274Z,98454.73
2018-04-14T11:38:00.526Z,98462.53
2018-04-14T11:40:28.789Z,98456.16
2018-04-14T11:42:57.055Z,98446.44
2018-04-14T11:45:25.322Z,98451.41
2018-04-14T11:47:53.580Z,98454.22
2018-04-14T11:50:21.846Z,98456.16
2018-04-14T11:52:50.101Z,98458.58
2018-04-14T11:55:18.364Z,98456.87
2018-04-14T11:57:47.382Z,98456.94
2018-04-14T12:00:15.655Z,98461.85
2018-04-14T12:02:43.904Z,98460.86
2018-04-14T12:05:12.935Z,98455.99
2018-04-14T12:07:41.193Z,98460.13
2018-04-14T12:10:09.490Z,98461.06
2018-04-14T12:12:37.745Z,98457.86
2018-04-14T12:15:06.011Z,98462.69
2018-04-14T12:17:34.274Z,98462.41
2018-04-14T12:20:03.301Z,98464.92
2018-04-14T12:22:31.565Z,98463.45
2018-04-14T12:24:59.833Z,98455.61
2018-04-14T12:27:28.093Z,98456.36
2018-04-14T12:29:56.350Z,98446.47
2018-04-14T12:32:24.616Z,98449.91
2018-04-14T12:34:52.876Z,98445.34
2018-04-14T12:37:21.138Z,98449.46
2018-04-14T12:39:49.389Z,98442.45
2018-04-14T12:42:17.670Z,98434.25
2018-04-14T12:44:45.920Z,98439.42
2018-04-14T12:47:14.181Z,98438.03
2018-04-14T12:49:43.072Z,98440.27
2018-04-14T12:52:11.340Z,98438.30
2018-04-14T12:54:40.391Z,98431.80
2018-04-14T12:57:08.645Z,98428.78
2018-04-14T12:59:36.909Z,98430.11
2018-04-14T13:02:05.942Z,98432.84
2018-04-14T13:04:34.188Z,98429.36
2018-04-14T13:07:03.059Z,98443.38
2018-04-14T13:09:31.305Z,98430.38
2018-04-14T13:11:59.570Z,98434.62
2018-04-14T13:14:27.842Z,98434.79
2018-04-14T13:16:56.095Z,98427.43
2018-04-14T13:19:24.350Z,98431.58
2018-04-14T13:21:52.619Z,98440.83
2018-04-14T13:24:20.902Z,98445.84
2018-04-14T13:26:49.919Z,98447.18
2018-04-14T13:29:18.181Z,98449.70
2018-04-14T13:31:46.441Z,98442.82
2018-04-14T13:34:15.473Z,98438.93
2018-04-14T13:36:43.749Z,98441.57
2018-04-14T13:39:12.015Z,98458.00
2018-04-14T13:41:40.273Z,98448.16
2018-04-14T13:44:08.545Z,98460.63
2018-04-14T13:46:37.670Z,98459.64
2018-04-14T13:49:05.945Z,98463.03
2018-04-14T13:51:34.201Z,98453.59
2018-04-14T13:54:03.813Z,98447.38
2018-04-14T13:56:32.076Z,98433.33
2018-04-14T13:59:00.792Z,98435.48
2018-04-14T14:01:29.081Z,98430.43
2018-04-14T14:03:57.339Z,98429.09
2018-04-14T14:06:25.601Z,98426.34
2018-04-14T14:08:53.856Z,98412.62
2018-04-14T14:11:22.900Z,98411.48
2018-04-14T14:13:51.151Z,98409.90
2018-04-14T14:16:19.417Z,98398.69
2018-04-14T14:18:47.659Z,98392.86
2018-04-14T14:21:15.924Z,98390.18
2018-04-14T14:23:44.164Z,98391.77
2018-04-14T14:26:12.418Z,98400.53
2018-04-14T14:28:40.688Z,98395.97
2018-04-14T14:31:09.698Z,98385.73
2018-04-14T14:33:37.979Z,98382.00
2018-04-14T14:36:06.979Z,98379.51
2018-04-14T14:38:35.238Z,98380.91
2018-04-14T14:41:03.500Z,98387.98
2018-04-14T14:43:32.514Z,98383.65
2018-04-14T14:46:00.768Z,98380.84
2018-04-14T14:48:29.068Z,98373.19
2018-04-14T14:50:58.062Z,98378.02
2018-04-14T14:53:26.317Z,98371.59
2018-04-14T14:55:54.581Z,98369.37
2018-04-14T14:58:23.632Z,98368.66
2018-04-14T15:00:51.893Z,98358.51
2018-04-14T15:03:20.178Z,98349.77
2018-04-14T15:05:48.449Z,98352.88
2018-04-14T15:08:16.714Z,98349.59
2018-04-14T15:10:44.961Z,98337.14
2018-04-14T15:13:13.222Z,98327.66
2018-04-14T15:15:42.237Z,98323.67
2018-04-14T15:18:10.499Z,98314.20
2018-04-14T15:20:38.766Z,98314.63
2018-04-14T15:23:07.025Z,98312.59
2018-04-14T15:25:35.288Z,98314.34
2018-04-14T15:28:04.239Z,98311.08
2018-04-14T15:30:32.485Z,98305.46
2018-04-14T15:33:00.756Z,98311.21
2018-04-14T15:35:29.821Z,98308.44
2018-04-14T15:37:58.096Z,98308.05
2018-04-14T15:40:26.360Z,98314.05
2018-04-14T15:42:54.608Z,98308.50
2018-04-14T15:45:22.898Z,98311.14
2018-04-14T15:47:51.173Z,98314.00
2018-04-14T15:50:19.430Z,98316.27
2018-04-14T15:52:47.690Z,98306.28
2018-04-14T15:55:15.946Z,98306.02
2018-04-14T15:57:44.213Z,98308.60
2018-04-14T16:00:12.478Z,98311.88
2018-04-14T16:02:41.303Z,98304.33
2018-04-14T16:05:10.329Z,98317.64
2018-04-14T16:07:38.587Z,98311.70
2018-04-14T16:10:06.866Z,98312.50
2018-04-14T16:12:35.112Z,98312.64
2018-04-14T16:15:03.379Z,98310.17
2018-04-14T16:17:31.655Z,98304.59
2018-04-14T16:19:59.910Z,98306.45
2018-04-14T16:22:28.765Z,98308.77
2018-04-14T16:24:57.060Z,98307.04
2018-04-14T16:27:25.319Z,98315.06
2018-04-14T16:29:54.493Z,98327.92
2018-04-14T16:32:23.539Z,98322.95
2018-04-14T16:34:51.797Z,98323.98
2018-04-14T16:37:20.056Z,98326.21
2018-04-14T16:39:48.511Z,98320.83
2018-04-14T16:42:18.251Z,98319.63
2018-04-14T16:44:46.801Z,98320.77
2018-04-14T16:47:15.716Z,98319.48
2018-04-14T16:49:44.869Z,98321.03
2018-04-14T16:52:13.120Z,98323.09
2018-04-14T16:54:42.217Z,98320.09
2018-04-14T16:57:11.254Z,98326.67
2018-04-14T16:59:40.274Z,98330.02
2018-04-14T17:02:08.528Z,98325.65
2018-04-14T17:04:36.778Z,98322.77
2018-04-14T17:07:05.032Z,98319.59
2018-04-14T17:09:33.289Z,98325.00
2018-04-14T17:12:01.544Z,98319.56
2018-04-14T17:14:29.798Z,98321.05
2018-04-14T17:16:58.053Z,98324.16
2018-04-14T17:19:26.304Z,98324.45
2018-04-14T17:21:54.560Z,98321.63
2018-04-14T17:24:22.821Z,98322.82
2018-04-14T17:26:51.837Z,98324.36
2018-04-14T17:29:20.086Z,98321.14
2018-04-14T17:31:49.117Z,98318.03
2018-04-14T17:34:17.479Z,98311.80
2018-04-14T17:36:45.721Z,98313.62
2018-04-14T17:39:21.902Z,98317.61
2018-04-14T17:41:50.158Z,98322.45
2018-04-14T17:44:19.233Z,98318.33
2018-04-14T17:46:47.428Z,98322.88
2018-04-14T17:49:16.453Z,98325.16
2018-04-14T17:51:44.692Z,98328.80
2018-04-14T17:54:13.718Z,98332.50
2018-04-14T17:56:41.961Z,98330.31
2018-04-14T17:59:10.977Z,98331.67
2018-04-14T18:01:39.584Z,98328.45
2018-04-14T18:04:07.837Z,98332.80
2018-04-14T18:06:36.080Z,98334.35
2018-04-14T18:09:04.354Z,98338.31
2018-04-14T18:11:32.606Z,98338.03
2018-04-14T18:14:00.866Z,98334.90
2018-04-14T18:16:29.125Z,98335.81
2018-04-14T18:18:57.381Z,98337.56
2018-04-14T18:21:26.389Z,98336.72
2018-04-14T18:23:54.651Z,98337.31
2018-04-14T18:26:23.663Z,98347.27
2018-04-14T18:28:51.919Z,98349.63
2018-04-14T18:31:20.217Z,98347.77
2018-04-14T18:33:49.219Z,98353.73
2018-04-14T18:36:17.471Z,98359.47
2018-04-14T18:38:45.716Z,98360.44
2018-04-14T18:41:14.746Z,98353.67
2018-04-14T18:43:43.002Z,98355.41
2018-04-14T18:46:12.030Z,98359.53
2018-04-14T18:48:40.280Z,98347.74
2018-04-14T18:51:08.544Z,98347.37
2018-04-14T18:53:37.562Z,98353.34
2018-04-14T18:56:05.818Z,98355.59
2018-04-14T18:58:34.843Z,98355.27
2018-04-14T19:01:03.095Z,98352.89
2018-04-14T19:03:31.353Z,98355.29
2018-04-14T19:06:00.374Z,98361.77
2018-04-14T19:08:28.637Z,98367.58
2018-04-14T19:10:56.902Z,98365.09
2018-04-14T19:13:25.913Z,98368.77
2018-04-14T19:15:54.185Z,98363.71
2018-04-14T19:18:22.442Z,98365.77
2018-04-14T19:20:51.485Z,98357.80
2018-04-14T19:23:19.743Z,98363.34
2018-04-14T19:25:47.992Z,98367.53
2018-04-14T19:28:17.014Z,98368.30
2018-04-14T19:30:45.265Z,98369.97
2018-04-14T19:33:14.290Z,98366.77
2018-04-14T19:35:42.538Z,98367.00
2018-04-14T19:38:10.800Z,98368.34
2018-04-14T19:40:39.812Z,98370.66
2018-04-14T19:43:08.077Z,98369.52
2018-04-14T19:45:37.084Z,98372.55
2018-04-14T19:48:05.367Z,98366.35
2018-04-14T19:50:33.608Z,98367.80
2018-04-14T19:53:02.630Z,98361.47
2018-04-14T19:55:30.880Z,98360.12
2018-04-14T19:57:59.904Z,98355.05
2018-04-14T20:00:28.160Z,98346.88
2018-04-14T20:02:56.428Z,98351.92
2018-04-14T20:05:25.453Z,98357.45
2018-04-14T20:07:53.713Z,98358.29
2018-04-14T20:10:21.965Z,98362.87
2018-04-14T20:12:50.986Z,98360.42
2018-04-14T20:15:19.237Z,98359.82
2018-04-14T20:17:48.262Z,98356.47
2018-04-14T20:20:16.509Z,98359.42
2018-04-14T20:22:45.535Z,98360.33
2018-04-14T20:25:13.787Z,98356.56
2018-04-14T20:27:42.880Z,98353.56
2018-04-14T20:30:11.140Z,98352.66
2018-04-14T20:32:40.174Z,98350.33
2018-04-14T20:35:08.425Z,98343.70
2018-04-14T20:37:36.677Z,98347.47
2018-04-14T20:40:04.942Z,98344.76
2018-04-14T20:42:33.240Z,98347.02
2018-04-14T20:45:02.276Z,98348.56
2018-04-14T20:47:30.610Z,98346.61
2018-04-14T20:49:58.869Z,98337.02
2018-04-14T20:52:27.125Z,98333.84
2018-04-14T20:54:56.157Z,98333.49
2018-04-14T20:57:24.430Z,98329.26
2018-04-14T20:59:52.703Z,98319.34
2018-04-14T21:02:20.966Z,98317.59
2018-04-14T21:04:49.232Z,98314.25
2018-04-14T21:07:17.498Z,98320.62
2018-04-14T21:09:45.769Z,98317.69
2018-04-14T21:12:14.067Z,98315.63
2018-04-14T21:14:42.375Z,98318.64
2018-04-14T21:17:10.632Z,98315.27
2018-04-14T21:19:38.893Z,98316.98
2018-04-14T21:22:07.147Z,98313.19
2018-04-14T21:24:35.421Z,98317.08
2018-04-14T21:27:03.678Z,98308.63
2018-04-14T21:29:31.939Z,98317.17
2018-04-14T21:32:00.197Z,98305.38
2018-04-14T21:34:29.240Z,98297.79
2018-04-14T21:36:57.512Z,98291.41
2018-04-14T21:39:25.783Z,98288.81
2018-04-14T21:41:54.060Z,98289.59
2018-04-14T21:44:22.329Z,98287.09
2018-04-14T21:46:50.597Z,98281.05
2018-04-14T21:49:18.870Z,98276.81
2018-04-14T21:51:47.153Z,98276.81
2018-04-14T21:54:15.427Z,98275.55
2018-04-14T21:56:43.710Z,98269.19
2018-04-14T21:59:12.099Z,98267.90
2018-04-14T22:01:40.454Z,98266.62
2018-04-14T22:04:08.714Z,98266.39
2018-04-14T22:06:37.755Z,98264.38
2018-04-14T22:09:06.757Z,98262.75
2018-04-14T22:11:35.040Z,98261.49
2018-04-14T22:14:03.298Z,98264.89
2018-04-14T22:16:31.560Z,98267.89
2018-04-14T22:18:59.816Z,98266.17
2018-04-14T22:21:28.075Z,98269.98
2018-04-14T22:23:57.098Z,98261.91
2018-04-14T22:26:25.349Z,98262.31
2018-04-14T22:28:53.606Z,98256.77
2018-04-14T22:31:22.624Z,98255.05
2018-04-14T22:33:50.896Z,98248.70
2018-04-14T22:36:19.145Z,98257.18
2018-04-14T22:38:48.170Z,98247.44
2018-04-14T22:41:16.418Z,98249.98
2018-04-14T22:43:45.444Z,98255.05
2018-04-14T22:46:13.700Z,98245.30
2018-04-14T22:48:42.721Z,98239.81
2018-04-14T22:51:10.982Z,98234.75
2018-04-14T22:53:39.236Z,98231.81
2018-04-14T22:56:08.254Z,98231.82
2018-04-14T22:58:36.516Z,98223.40
2018-04-14T23:01:05.539Z,98210.31
2018-04-14T23:03:33.796Z,98205.72
2018-04-14T23:06:02.058Z,98212.17
2018-04-14T23:08:31.104Z,98209.31
2018-04-14T23:10:59.360Z,98205.97
2018-04-14T23:13:27.633Z,98207.66
2018-04-14T23:15:55.885Z,98202.58
2018-04-14T23:18:24.136Z,98205.53
2018-04-14T23:20:53.160Z,98201.81
2018-04-14T23:23:21.420Z,98198.91
2018-04-14T23:25:50.451Z,98198.98
2018-04-14T23:28:18.705Z,98188.83
2018-04-14T23:30:46.968Z,98186.29
2018-04-14T23:33:15.998Z,98178.28
2018-04-14T23:35:45.090Z,98175.75
2018-04-14T23:38:13.346Z,98169.46
2018-04-14T23:40:41.611Z,98168.20
2018-04-14T23:43:09.874Z,98172.45
2018-04-14T23:45:38.906Z,98177.55
2018-04-14T23:48:07.183Z,98171.20
2018-04-14T23:50:35.452Z,98168.25
2018-04-14T23:53:03.716Z,98168.27
2018-04-14T23:55:32.010Z,98161.95
2018-04-14T23:58:00.264Z,98164.48
